Allensburg, Ohio
Current Conditions -  °F | °C
As of 2:02 AM on Saturday 01 Nov 2014 (Local Time) from KILN Reporting Station
Light Snow Light Snow  
Wind Chill: 21°   Ceiling: 1000
Heat Index: 33°   Visibility: 2mi
Dew Point: 30°   Wind: 21mph
Humidity: 89%   Direction: 350°N
Pressure: 29.99"   Gusts: 29mph
Location:  39.1546°N, 83.569°W
Report Text: KILN 010602Z AUTO 35018G25KT 2SM -SN BR BKN010 BKN013 OVC019 01/M01 A2999 RMK AO2 P0000 T00061011
Loading
Personal Weather Stations






























Interactive Weather Map
Tropical Storm Tracking
New forecast layout! Learn more

10-Day Weather Forecast

Advertisements
Track Severe Weather on mobile